createdAt,value
2023-08-04T00:00:31.977Z,4.05
2023-08-04T00:05:33.646Z,4.15
2023-08-04T00:10:35.647Z,4.00
2023-08-04T00:15:37.313Z,4.25
2023-08-04T00:20:39.118Z,4.13
2023-08-04T00:25:40.695Z,3.55
2023-08-04T00:30:42.347Z,4.00
2023-08-04T00:35:43.915Z,3.88
2023-08-04T00:40:45.545Z,3.38
2023-08-04T00:45:47.223Z,3.85
2023-08-04T00:50:49.141Z,3.67
2023-08-04T00:55:51.529Z,4.25
2023-08-04T01:00:53.899Z,4.15
2023-08-04T01:06:43.857Z,4.00
2023-08-04T01:12:14.100Z,4.20
2023-08-04T01:17:42.246Z,4.30
2023-08-04T01:22:44.403Z,3.85
2023-08-04T01:32:51.197Z,3.58
2023-08-04T01:37:52.827Z,4.18
2023-08-04T01:42:54.532Z,4.25
2023-08-04T01:47:56.371Z,3.78
2023-08-04T01:52:58.132Z,3.97
2023-08-04T01:57:59.780Z,3.67
2023-08-04T02:03:01.516Z,4.38
2023-08-04T02:08:03.676Z,4.10
2023-08-04T02:18:06.897Z,4.25
2023-08-04T02:23:08.562Z,4.85
2023-08-04T02:28:10.363Z,4.93
2023-08-04T02:33:12.019Z,4.47
2023-08-04T02:38:13.699Z,5.03
2023-08-04T02:43:15.256Z,5.22
2023-08-04T02:48:16.925Z,5.00
2023-08-04T02:53:18.605Z,4.78
2023-08-04T02:58:20.275Z,5.10
2023-08-04T03:03:23.619Z,5.68
2023-08-04T03:08:25.489Z,5.20
2023-08-04T03:13:27.854Z,5.72
2023-08-04T03:18:29.476Z,5.60
2023-08-04T03:23:31.771Z,5.63
2023-08-04T03:28:33.560Z,4.70
2023-08-04T03:33:36.411Z,4.90
2023-08-04T03:38:38.214Z,4.47
2023-08-04T03:43:39.823Z,4.50
2023-08-04T03:48:41.448Z,3.92
2023-08-04T03:53:43.051Z,3.08
2023-08-04T03:58:44.680Z,3.17
2023-08-04T04:03:46.463Z,3.85
2023-08-04T04:08:48.050Z,4.65
2023-08-04T04:13:49.582Z,3.97
2023-08-04T04:18:51.399Z,3.97
2023-08-04T04:23:53.017Z,4.60
2023-08-04T04:28:54.565Z,3.75
2023-08-04T04:33:56.134Z,4.18
2023-08-04T04:38:57.794Z,4.10
2023-08-04T04:43:59.465Z,4.38
2023-08-04T04:49:01.097Z,3.88
2023-08-04T04:54:02.603Z,4.25
2023-08-04T04:59:04.482Z,4.63
2023-08-04T05:04:06.178Z,5.35
2023-08-04T05:09:08.863Z,4.80
2023-08-04T05:14:10.458Z,4.72
2023-08-04T05:19:12.142Z,4.43
2023-08-04T05:24:13.764Z,4.45
2023-08-04T05:29:15.442Z,4.38
2023-08-04T05:34:17.042Z,5.07
2023-08-04T05:39:18.939Z,5.03
2023-08-04T05:44:20.650Z,5.00
2023-08-04T05:49:22.361Z,4.97
2023-08-04T05:54:23.932Z,3.10
2023-08-04T05:59:25.566Z,3.28
2023-08-04T06:04:27.144Z,3.20
2023-08-04T06:09:28.702Z,3.30
2023-08-04T06:14:30.269Z,2.85
2023-08-04T06:19:31.863Z,2.53
2023-08-04T06:24:33.451Z,2.88
2023-08-04T06:29:36.312Z,2.55
2023-08-04T06:34:37.921Z,2.40
2023-08-04T06:39:39.546Z,2.90
2023-08-04T06:44:41.205Z,2.55
2023-08-04T06:49:43.884Z,2.88
2023-08-04T06:54:45.941Z,2.42
2023-08-04T06:59:47.507Z,2.55
2023-08-04T07:04:49.120Z,1.77
2023-08-04T07:09:50.715Z,2.00
2023-08-04T07:14:52.377Z,2.15
2023-08-04T07:19:54.279Z,2.00
2023-08-04T07:24:55.897Z,2.25
2023-08-04T07:29:57.466Z,1.80
2023-08-04T07:34:59.227Z,1.60
2023-08-04T07:40:00.829Z,1.90
2023-08-04T07:45:02.408Z,1.60
2023-08-04T07:50:04.154Z,1.90
2023-08-04T07:55:06.898Z,1.90
2023-08-04T08:00:08.963Z,1.45
2023-08-04T08:10:12.038Z,2.10
2023-08-04T08:15:13.583Z,1.52
2023-08-04T08:20:15.362Z,2.42
2023-08-04T08:25:16.914Z,2.25
2023-08-04T08:30:18.539Z,2.08
2023-08-04T08:35:20.071Z,2.05
2023-08-04T08:40:27.075Z,2.33
2023-08-04T08:45:29.169Z,1.50
2023-08-04T08:55:33.392Z,1.40
2023-08-04T09:00:36.202Z,1.25
2023-08-04T09:05:37.778Z,1.30
2023-08-04T09:10:39.756Z,1.33
2023-08-04T09:15:49.894Z,1.13
2023-08-04T09:20:58.847Z,1.50
2023-08-04T09:26:00.457Z,1.70
2023-08-04T09:31:07.164Z,1.40
2023-08-04T09:36:11.141Z,1.35
2023-08-04T09:41:15.924Z,2.10
2023-08-04T09:46:18.803Z,1.67
2023-08-04T09:51:20.717Z,1.50
2023-08-04T09:56:28.381Z,1.50
2023-08-04T10:01:30.931Z,1.20
2023-08-04T10:06:34.495Z,1.30
2023-08-04T10:11:36.146Z,1.27
2023-08-04T10:16:39.530Z,1.30
2023-08-04T10:21:42.780Z,1.50
2023-08-04T10:26:48.239Z,2.00
2023-08-04T10:31:56.318Z,2.00
2023-08-04T10:37:16.529Z,1.83
2023-08-04T10:42:25.644Z,1.63
2023-08-04T10:48:10.354Z,2.55
2023-08-04T10:53:13.411Z,1.88
2023-08-04T10:58:16.263Z,1.60
2023-08-04T11:03:27.137Z,1.45
2023-08-04T11:08:28.750Z,1.75
2023-08-04T11:13:30.621Z,1.85
2023-08-04T11:18:32.592Z,1.88
2023-08-04T11:28:36.388Z,1.80
2023-08-04T11:33:45.585Z,1.90
2023-08-04T11:38:47.196Z,2.00
2023-08-04T11:43:48.933Z,1.30
2023-08-04T11:48:50.607Z,2.20
2023-08-04T11:53:52.228Z,2.10
2023-08-04T11:58:58.913Z,2.53
2023-08-04T12:04:02.275Z,2.58
2023-08-04T12:09:04.397Z,2.45
2023-08-04T12:14:11.279Z,2.67
2023-08-04T12:19:12.926Z,2.58
2023-08-04T12:24:14.589Z,2.60
2023-08-04T12:29:16.216Z,3.38
2023-08-04T12:34:20.042Z,3.03
2023-08-04T12:39:23.964Z,3.33
2023-08-04T12:44:25.574Z,4.70
2023-08-04T12:49:27.227Z,3.63
2023-08-04T12:54:29.327Z,3.67
2023-08-04T12:59:32.480Z,4.30
2023-08-04T13:04:35.021Z,4.47
2023-08-04T13:09:36.756Z,4.78
2023-08-04T13:14:38.370Z,4.70
2023-08-04T13:19:40.001Z,4.63
2023-08-04T13:24:41.597Z,5.30
2023-08-04T13:29:43.156Z,4.97
2023-08-04T13:34:44.776Z,5.63
2023-08-04T13:39:46.382Z,5.03
2023-08-04T13:44:48.672Z,4.97
2023-08-04T13:49:50.273Z,3.60
2023-08-04T13:54:51.898Z,3.42
2023-08-04T13:59:53.510Z,4.15
2023-08-04T14:04:55.407Z,15.65
2023-08-04T14:09:57.233Z,2.90
2023-08-04T14:14:59.035Z,2.30
2023-08-04T14:20:06.373Z,2.13
2023-08-04T14:25:08.514Z,2.25
2023-08-04T14:30:10.267Z,2.35
2023-08-04T14:35:11.976Z,2.33
2023-08-04T14:40:13.720Z,2.47
2023-08-04T14:45:15.326Z,1.98
2023-08-04T14:50:16.986Z,1.90
2023-08-04T14:55:18.594Z,1.75
2023-08-04T15:00:20.200Z,2.08
2023-08-04T15:05:21.978Z,2.10
2023-08-04T15:10:23.600Z,3.03
2023-08-04T15:15:26.963Z,1.90
2023-08-04T15:20:28.709Z,1.90
2023-08-04T15:25:30.591Z,1.75
2023-08-04T15:30:36.539Z,1.63
2023-08-04T15:35:38.233Z,1.80
2023-08-04T15:40:41.798Z,2.17
2023-08-04T15:45:43.399Z,2.53
2023-08-04T15:50:46.745Z,3.67
2023-08-04T15:55:48.424Z,4.65
2023-08-04T16:00:49.983Z,3.20
2023-08-04T16:05:58.860Z,2.70
2023-08-04T16:11:03.976Z,3.38
2023-08-04T16:16:08.062Z,3.75
2023-08-04T16:21:09.766Z,4.00
2023-08-04T16:26:11.413Z,2.38
2023-08-04T16:31:13.606Z,2.60
2023-08-04T16:36:15.473Z,2.20
2023-08-04T16:41:20.036Z,2.25
2023-08-04T16:46:21.808Z,2.10
2023-08-04T16:51:25.824Z,2.38
2023-08-04T16:56:28.977Z,2.08
2023-08-04T17:01:31.316Z,2.25
2023-08-04T17:06:33.192Z,5.53
2023-08-04T17:11:35.188Z,3.97
2023-08-04T17:16:36.790Z,2.50
2023-08-04T17:21:38.458Z,2.25
2023-08-04T17:26:40.263Z,2.17
2023-08-04T17:31:45.377Z,2.60
2023-08-04T17:36:47.546Z,2.35
2023-08-04T17:41:49.789Z,2.63
2023-08-04T17:46:51.684Z,2.28
2023-08-04T17:56:54.997Z,2.65
2023-08-04T18:01:56.650Z,3.35
2023-08-04T18:06:58.257Z,3.50
2023-08-04T18:11:59.899Z,3.83
2023-08-04T18:17:01.970Z,3.08
2023-08-04T18:27:08.167Z,2.60
2023-08-04T18:32:10.989Z,2.50
2023-08-04T18:37:14.420Z,4.90
2023-08-04T18:42:18.055Z,3.13
2023-08-04T18:47:21.695Z,2.75
2023-08-04T18:52:25.190Z,3.20
2023-08-04T18:57:28.715Z,3.55
2023-08-04T19:02:31.845Z,3.13
2023-08-04T19:07:35.596Z,2.92
2023-08-04T19:12:39.216Z,3.30
2023-08-04T19:17:43.063Z,2.80
2023-08-04T19:22:46.745Z,2.53
2023-08-04T19:27:50.538Z,2.13
2023-08-04T19:32:59.305Z,1.92
2023-08-04T19:38:22.391Z,2.25
2023-08-04T19:43:27.478Z,2.00
2023-08-04T19:48:31.676Z,2.00
2023-08-04T19:53:34.806Z,1.92
2023-08-04T19:58:42.376Z,2.17
2023-08-04T20:03:48.317Z,1.77
2023-08-04T20:08:51.951Z,1.92
2023-08-04T20:13:55.931Z,2.03
2023-08-04T20:18:59.473Z,1.88
2023-08-04T20:24:02.649Z,2.20
2023-08-04T20:29:06.112Z,1.80
2023-08-04T20:34:09.770Z,1.67
2023-08-04T20:39:12.781Z,1.80
2023-08-04T20:44:16.973Z,1.77
2023-08-04T20:49:19.476Z,1.67
2023-08-04T20:54:23.442Z,2.15
2023-08-04T20:59:26.614Z,1.52
2023-08-04T21:04:29.547Z,1.73
2023-08-04T21:09:31.125Z,1.40
2023-08-04T21:14:32.663Z,1.33
2023-08-04T21:19:34.366Z,1.80
2023-08-04T21:24:36.031Z,1.63
2023-08-04T21:29:37.623Z,1.80
2023-08-04T21:34:39.212Z,2.05
2023-08-04T21:39:40.784Z,2.13
2023-08-04T21:44:42.351Z,2.33
2023-08-04T21:49:43.947Z,2.00
2023-08-04T21:54:45.570Z,2.15
2023-08-04T21:59:47.124Z,2.05
2023-08-04T22:04:48.898Z,2.05
2023-08-04T22:09:50.513Z,2.47
2023-08-04T22:14:52.124Z,2.20
2023-08-04T22:19:53.881Z,2.08
2023-08-04T22:24:55.385Z,1.85
2023-08-04T22:29:57.174Z,2.20
2023-08-04T22:34:58.784Z,2.22
2023-08-04T22:40:00.363Z,2.40
2023-08-04T22:45:03.941Z,2.72
2023-08-04T22:50:05.965Z,3.67
2023-08-04T22:55:07.928Z,3.40
2023-08-04T23:00:10.766Z,3.13
2023-08-04T23:05:16.042Z,3.05
2023-08-04T23:10:17.648Z,3.67
2023-08-04T23:15:19.225Z,2.92
2023-08-04T23:20:20.852Z,2.72
2023-08-04T23:25:22.433Z,3.08
2023-08-04T23:30:24.023Z,3.70
2023-08-04T23:35:26.086Z,4.38
2023-08-04T23:40:27.684Z,4.45
2023-08-04T23:45:29.265Z,3.95
2023-08-04T23:50:30.830Z,4.40
2023-08-04T23:55:32.443Z,4.60
